createdAt,value
2023-04-01T00:00:56.095Z,53.50
2023-04-01T00:05:52.932Z,52.95
2023-04-01T00:10:49.868Z,52.71
2023-04-01T00:15:48.632Z,53.19
2023-04-01T00:20:46.621Z,53.34
2023-04-01T00:25:45.659Z,53.60
2023-04-01T00:30:42.444Z,54.08
2023-04-01T00:35:40.855Z,54.04
2023-04-01T00:40:39.809Z,53.83
2023-04-01T00:45:38.882Z,53.39
2023-04-01T00:50:38.038Z,53.49
2023-04-01T00:55:42.981Z,53.15
2023-04-01T01:00:39.913Z,53.06
2023-04-01T01:05:53.426Z,53.28
2023-04-01T01:10:51.345Z,52.78
2023-04-01T01:15:52.808Z,52.49
2023-04-01T01:21:27.127Z,51.89
2023-04-01T01:26:50.753Z,52.05
2023-04-01T01:31:55.608Z,51.94
2023-04-01T01:36:57.288Z,51.63
2023-04-01T01:41:56.800Z,52.13
2023-04-01T01:46:53.873Z,52.00
2023-04-01T01:51:51.809Z,52.09
2023-04-01T01:56:52.835Z,52.05
2023-04-01T02:01:52.719Z,52.00
2023-04-01T02:06:57.060Z,52.14
2023-04-01T02:11:58.538Z,52.24
2023-04-01T02:16:58.788Z,52.24
2023-04-01T02:21:59.910Z,51.88
2023-04-01T02:26:58.219Z,51.99
2023-04-01T02:31:55.996Z,51.86
2023-04-01T02:36:53.732Z,52.09
2023-04-01T02:41:50.571Z,52.34
2023-04-01T02:46:48.143Z,52.61
2023-04-01T02:51:45.041Z,52.90
2023-04-01T02:56:42.052Z,52.87
2023-04-01T03:01:39.362Z,53.43
2023-04-01T03:06:37.056Z,53.79
2023-04-01T03:11:34.478Z,53.88
2023-04-01T03:16:31.578Z,53.97
2023-04-01T03:21:28.816Z,54.42
2023-04-01T03:26:27.511Z,54.87
2023-04-01T03:31:24.400Z,55.04
2023-04-01T03:36:25.343Z,54.87
2023-04-01T03:41:24.562Z,54.86
2023-04-01T03:46:22.099Z,54.62
2023-04-01T03:51:19.178Z,54.79
2023-04-01T03:56:16.016Z,54.87
2023-04-01T04:01:18.232Z,55.27
2023-04-01T04:06:17.912Z,55.39
2023-04-01T04:11:14.853Z,55.40
2023-04-01T04:16:13.402Z,55.31
2023-04-01T04:21:19.478Z,55.19
2023-04-01T04:26:16.743Z,55.39
2023-04-01T04:31:20.513Z,55.48
2023-04-01T04:36:19.866Z,55.51
2023-04-01T04:41:19.937Z,55.46
2023-04-01T04:46:20.145Z,55.23
2023-04-01T04:51:21.947Z,54.96
2023-04-01T04:56:19.772Z,54.66
2023-04-01T05:01:36.903Z,54.01
2023-04-01T05:06:34.459Z,54.31
2023-04-01T05:11:31.519Z,54.13
2023-04-01T05:16:28.914Z,53.77
2023-04-01T05:21:26.037Z,53.78
2023-04-01T05:26:26.015Z,53.42
2023-04-01T05:31:24.619Z,53.21
2023-04-01T05:36:22.856Z,53.30
2023-04-01T05:41:20.544Z,53.09
2023-04-01T05:46:20.829Z,52.29
2023-04-01T05:51:27.018Z,51.74
2023-04-01T05:56:48.594Z,51.11
2023-04-01T06:01:46.567Z,50.46
2023-04-01T06:06:43.944Z,49.27
2023-04-01T06:11:58.450Z,48.23
2023-04-01T06:17:15.657Z,47.30
2023-04-01T06:22:49.141Z,46.47
2023-04-01T06:28:17.774Z,45.66
2023-04-01T06:33:47.394Z,45.59
2023-04-01T06:39:04.060Z,45.17
2023-04-01T06:44:14.818Z,44.78
2023-04-01T06:50:02.232Z,44.84
2023-04-01T06:55:42.790Z,45.03
2023-04-01T07:00:52.063Z,44.99
2023-04-01T07:05:50.980Z,44.76
2023-04-01T07:10:55.533Z,44.60
2023-04-01T07:16:16.324Z,44.63
2023-04-01T07:21:24.472Z,44.41
2023-04-01T07:26:24.544Z,44.60
2023-04-01T07:31:56.472Z,44.95
2023-04-01T07:37:01.752Z,44.89
2023-04-01T07:42:08.584Z,45.07
2023-04-01T07:47:25.601Z,45.23
2023-04-01T07:52:32.889Z,45.19
2023-04-01T07:57:44.446Z,45.01
2023-04-01T08:03:00.989Z,44.11
2023-04-01T08:08:07.721Z,43.65
2023-04-01T08:13:34.492Z,42.92
2023-04-01T08:18:59.965Z,42.45
2023-04-01T08:24:01.264Z,41.64
2023-04-01T08:29:03.305Z,41.38
2023-04-01T08:34:07.954Z,40.86
2023-04-01T08:39:11.345Z,40.30
2023-04-01T08:44:47.678Z,39.71
2023-04-01T08:50:19.185Z,39.22
2023-04-01T08:56:08.989Z,39.29
2023-04-01T09:01:24.200Z,38.16
2023-04-01T09:06:33.223Z,37.91
2023-04-01T09:11:56.388Z,37.64
2023-04-01T09:17:37.073Z,37.04
2023-04-01T09:22:52.444Z,37.09
2023-04-01T09:27:57.408Z,37.19
2023-04-01T09:33:27.050Z,37.46
2023-04-01T09:38:30.953Z,37.63
2023-04-01T09:43:39.689Z,38.09
2023-04-01T09:49:27.078Z,38.06
2023-04-01T09:54:41.182Z,37.94
2023-04-01T10:00:31.507Z,37.66
2023-04-01T10:06:21.848Z,36.90
2023-04-01T10:12:04.289Z,36.60
2023-04-01T10:17:43.508Z,36.30
2023-04-01T10:23:07.421Z,36.15
2023-04-01T10:28:37.744Z,35.46
2023-04-01T10:34:41.417Z,33.56
2023-04-01T10:39:54.341Z,33.07
2023-04-01T10:46:13.236Z,32.33
2023-04-01T10:51:20.314Z,33.43
2023-04-01T10:56:51.240Z,33.96
2023-04-01T11:03:08.369Z,35.59
2023-04-01T11:08:48.917Z,36.06
2023-04-01T11:14:16.287Z,37.12
2023-04-01T11:19:54.911Z,37.84
2023-04-01T11:25:21.529Z,38.69
2023-04-01T11:31:01.006Z,38.63
2023-04-01T11:36:16.017Z,39.66
2023-04-01T11:41:26.682Z,39.66
2023-04-01T11:47:20.499Z,40.27
2023-04-01T11:52:34.901Z,41.48
2023-04-01T11:57:52.210Z,42.87
2023-04-01T12:03:07.754Z,43.17
2023-04-01T12:08:29.822Z,44.08
2023-04-01T12:13:36.766Z,43.76
2023-04-01T12:18:41.559Z,43.59
2023-04-01T12:23:58.577Z,43.93
2023-04-01T12:29:15.894Z,42.79
2023-04-01T12:34:50.386Z,42.72
2023-04-01T12:40:02.977Z,43.12
2023-04-01T12:45:20.148Z,43.34
2023-04-01T12:50:34.422Z,43.85
2023-04-01T12:55:40.136Z,44.53
2023-04-01T13:00:52.337Z,44.45
2023-04-01T13:06:21.555Z,44.50
2023-04-01T13:11:26.224Z,44.46
2023-04-01T13:16:27.344Z,44.95
2023-04-01T13:21:39.324Z,45.41
2023-04-01T13:26:47.171Z,46.30
2023-04-01T13:32:01.240Z,46.49
2023-04-01T13:37:16.095Z,47.00
2023-04-01T13:42:25.371Z,47.11
2023-04-01T13:47:51.703Z,46.80
2023-04-01T13:53:12.866Z,47.20
2023-04-01T13:58:29.790Z,50.67
2023-04-01T14:03:40.733Z,51.73
2023-04-01T14:08:53.359Z,52.62
2023-04-01T14:14:03.589Z,53.54
2023-04-01T14:19:12.736Z,55.07
2023-04-01T14:24:26.020Z,57.70
2023-04-01T14:29:28.516Z,58.35
2023-04-01T14:34:47.239Z,59.81
2023-04-01T14:40:22.246Z,59.78
2023-04-01T14:45:47.136Z,60.93
2023-04-01T14:50:47.241Z,60.89
2023-04-01T14:55:51.508Z,61.46
2023-04-01T15:01:07.945Z,60.84
2023-04-01T15:06:36.726Z,59.69
2023-04-01T15:11:48.471Z,59.50
2023-04-01T15:16:56.616Z,59.52
2023-04-01T15:22:32.400Z,59.52
2023-04-01T15:27:42.807Z,59.03
2023-04-01T15:32:53.045Z,58.66
2023-04-01T15:37:56.262Z,58.48
2023-04-01T15:43:06.732Z,58.29
2023-04-01T15:48:17.207Z,58.31
2023-04-01T15:53:31.524Z,59.84
2023-04-01T15:58:45.369Z,60.56
2023-04-01T16:03:52.798Z,61.38
2023-04-01T16:09:14.604Z,62.34
2023-04-01T16:14:26.188Z,62.77
2023-04-01T16:19:38.615Z,62.55
2023-04-01T16:24:40.957Z,62.88
2023-04-01T16:29:47.248Z,63.30
2023-04-01T16:34:55.495Z,63.45
2023-04-01T16:40:03.367Z,64.00
2023-04-01T16:45:17.779Z,65.00
2023-04-01T16:50:18.695Z,66.18
2023-04-01T16:55:18.557Z,68.94
2023-04-01T17:00:29.108Z,70.53
2023-04-01T17:05:42.728Z,71.61
2023-04-01T17:10:49.102Z,71.88
2023-04-01T17:15:55.112Z,72.16
2023-04-01T17:21:00.164Z,73.62
2023-04-01T17:26:29.844Z,73.90
2023-04-01T17:31:47.022Z,74.15
2023-04-01T17:36:59.050Z,74.12
2023-04-01T17:42:06.109Z,74.17
2023-04-01T17:47:23.712Z,74.51
2023-04-01T17:52:28.640Z,74.53
2023-04-01T17:57:44.773Z,74.96
2023-04-01T18:02:51.679Z,75.26
2023-04-01T18:08:04.896Z,75.66
2023-04-01T18:13:34.813Z,75.94
2023-04-01T18:18:47.913Z,75.98
2023-04-01T18:24:01.525Z,76.00
2023-04-01T18:29:05.054Z,76.25
2023-04-01T18:34:15.384Z,76.38
2023-04-01T18:39:18.356Z,76.43
2023-04-01T18:44:29.064Z,77.09
2023-04-01T18:49:34.528Z,77.09
2023-04-01T18:54:33.153Z,76.28
2023-04-01T18:59:37.921Z,77.02
2023-04-01T19:04:43.545Z,77.17
2023-04-01T19:09:45.571Z,76.68
2023-04-01T19:15:06.009Z,77.26
2023-04-01T19:20:15.867Z,77.27
2023-04-01T19:25:37.553Z,77.48
2023-04-01T19:30:48.221Z,77.48
2023-04-01T19:35:54.349Z,77.50
2023-04-01T19:40:58.147Z,77.13
2023-04-01T19:46:04.515Z,77.32
2023-04-01T19:51:08.741Z,77.28
2023-04-01T19:56:15.931Z,77.17
2023-04-01T20:01:18.174Z,77.14
2023-04-01T20:06:28.463Z,76.74
2023-04-01T20:11:43.139Z,76.61
2023-04-01T20:17:00.886Z,76.01
2023-04-01T20:22:01.193Z,75.98
2023-04-01T20:27:04.853Z,75.85
2023-04-01T20:32:13.346Z,75.26
2023-04-01T20:37:33.186Z,74.18
2023-04-01T20:42:54.022Z,73.47
2023-04-01T20:48:11.858Z,72.73
2023-04-01T20:53:17.737Z,71.24
2023-04-01T20:58:22.530Z,71.42
2023-04-01T21:03:31.129Z,70.76
2023-04-01T21:08:41.180Z,70.92
2023-04-01T21:13:49.010Z,70.74
2023-04-01T21:18:59.548Z,69.97
2023-04-01T21:24:24.968Z,70.06
2023-04-01T21:29:45.747Z,69.78
2023-04-01T21:34:44.734Z,69.56
2023-04-01T21:39:59.838Z,68.62
2023-04-01T21:45:19.396Z,68.54
2023-04-01T21:50:45.525Z,67.82
2023-04-01T21:56:38.783Z,67.78
2023-04-01T22:01:55.863Z,67.56
2023-04-01T22:06:58.727Z,67.57
2023-04-01T22:12:03.205Z,67.52
2023-04-01T22:17:06.018Z,67.60
2023-04-01T22:22:12.361Z,67.30
2023-04-01T22:27:20.020Z,67.55
2023-04-01T22:32:23.630Z,66.91
2023-04-01T22:37:25.345Z,67.38
2023-04-01T22:42:34.441Z,68.02
2023-04-01T22:47:41.197Z,68.17
2023-04-01T22:52:44.669Z,68.52
2023-04-01T22:57:50.260Z,68.43
2023-04-01T23:02:50.695Z,68.86
2023-04-01T23:07:57.138Z,69.26
2023-04-01T23:12:58.929Z,69.15
2023-04-01T23:18:10.012Z,68.46
2023-04-01T23:23:25.030Z,68.65
2023-04-01T23:28:46.248Z,68.79
2023-04-01T23:33:53.603Z,69.21
2023-04-01T23:38:51.215Z,69.36
2023-04-01T23:43:53.877Z,69.49
2023-04-01T23:48:52.063Z,69.92
2023-04-01T23:53:57.121Z,70.30
2023-04-01T23:58:56.500Z,70.30
